createdAt,value
2018-08-18T05:39:45.762Z,98188.30
2018-08-18T05:42:15.400Z,98190.34
2018-08-18T05:44:46.898Z,98198.62
2018-08-18T05:47:16.490Z,98195.16
2018-08-18T05:49:46.004Z,98199.06
2018-08-18T05:52:15.532Z,98200.09
2018-08-18T05:54:45.053Z,98200.83
2018-08-18T05:57:14.140Z,98192.40
2018-08-18T05:59:43.604Z,98198.19
2018-08-18T06:02:12.536Z,98201.38
2018-08-18T06:04:42.084Z,98198.91
2018-08-18T06:07:12.148Z,98202.55
2018-08-18T06:09:41.458Z,98205.40
2018-08-18T06:12:15.272Z,98208.02
2018-08-18T06:14:48.732Z,98207.67
2018-08-18T06:17:23.702Z,98207.42
2018-08-18T06:19:52.863Z,98207.85
2018-08-18T06:22:23.124Z,98207.85
2018-08-18T06:24:52.538Z,98209.64
2018-08-18T06:27:25.572Z,98212.95
2018-08-18T06:29:54.217Z,98214.91
2018-08-18T06:32:22.806Z,98221.43
2018-08-18T06:34:52.298Z,98221.38
2018-08-18T06:37:21.216Z,98220.68
2018-08-18T06:39:56.187Z,98224.67
2018-08-18T06:42:45.709Z,98228.36
2018-08-18T06:45:18.961Z,98223.73
2018-08-18T06:47:47.693Z,98227.72
2018-08-18T06:50:17.944Z,98235.84
2018-08-18T06:52:47.964Z,98230.52
2018-08-18T06:55:20.486Z,98229.69
2018-08-18T06:57:54.530Z,98224.05
2018-08-18T07:00:24.494Z,98228.72
2018-08-18T07:02:55.443Z,98224.56
2018-08-18T07:05:24.820Z,98224.11
2018-08-18T07:07:54.390Z,98231.86
2018-08-18T07:10:39.752Z,98234.48
2018-08-18T07:13:10.526Z,98228.77
2018-08-18T07:15:41.699Z,98229.78
2018-08-18T07:18:12.395Z,98230.94
2018-08-18T07:20:42.112Z,98225.23
2018-08-18T07:23:10.824Z,98231.63
2018-08-18T07:25:46.784Z,98231.50
2018-08-18T07:28:15.470Z,98233.29
2018-08-18T07:30:44.053Z,98240.03
2018-08-18T07:33:13.001Z,98238.70
2018-08-18T07:35:42.257Z,98241.34
2018-08-18T07:38:10.905Z,98238.97
2018-08-18T07:40:44.228Z,98236.19
2018-08-18T07:43:18.696Z,98244.82
2018-08-18T07:45:48.683Z,98245.91
2018-08-18T07:48:17.435Z,98247.47
2018-08-18T07:50:46.202Z,98248.87
2018-08-18T07:53:15.055Z,98255.07
2018-08-18T07:55:44.368Z,98260.41
2018-08-18T07:58:15.658Z,98257.09
2018-08-18T08:00:44.537Z,98262.00
2018-08-18T08:03:14.340Z,98256.43
2018-08-18T08:05:44.642Z,98257.08
2018-08-18T08:08:14.024Z,98258.24
2018-08-18T08:10:42.888Z,98262.86
2018-08-18T08:13:12.752Z,98264.15
2018-08-18T08:18:34.459Z,98260.41
2018-08-18T08:21:03.494Z,98265.09
2018-08-18T08:23:32.215Z,98273.98
2018-08-18T08:26:01.669Z,98270.22
2018-08-18T08:28:30.998Z,98269.05
2018-08-18T08:30:59.664Z,98277.59
2018-08-18T08:33:38.946Z,98277.16
2018-08-18T08:36:14.413Z,98273.97
2018-08-18T08:38:56.671Z,98279.21
2018-08-18T08:41:27.713Z,98280.28
2018-08-18T08:43:56.433Z,98280.64
2018-08-18T08:46:25.176Z,98275.31
2018-08-18T08:48:58.225Z,98273.63
2018-08-18T08:51:27.220Z,98280.55
2018-08-18T08:53:57.343Z,98286.92
2018-08-18T08:56:34.849Z,98278.91
2018-08-18T08:59:04.375Z,98279.97
2018-08-18T09:01:34.125Z,98281.87
2018-08-18T09:04:03.229Z,98273.75
2018-08-18T09:06:32.191Z,98276.55
2018-08-18T09:09:01.615Z,98274.39
2018-08-18T09:11:30.567Z,98280.42
2018-08-18T09:14:04.910Z,98278.07
2018-08-18T09:16:34.245Z,98283.12
2018-08-18T09:19:03.061Z,98279.25
2018-08-18T09:21:40.039Z,98279.34
2018-08-18T09:24:08.872Z,98278.09
2018-08-18T09:26:42.971Z,98275.55
2018-08-18T09:29:12.524Z,98281.75
2018-08-18T09:31:41.824Z,98280.87
2018-08-18T09:34:10.621Z,98278.36
2018-08-18T09:36:39.316Z,98277.31
2018-08-18T09:39:10.573Z,98274.23
2018-08-18T09:41:39.481Z,98274.42
2018-08-18T09:44:10.432Z,98275.27
2018-08-18T09:46:39.166Z,98277.39
2018-08-18T09:49:07.797Z,98272.14
2018-08-18T09:51:36.899Z,98278.13
2018-08-18T09:54:05.621Z,98271.94
2018-08-18T09:56:34.354Z,98275.75
2018-08-18T09:59:03.572Z,98275.06
2018-08-18T10:01:33.202Z,98272.84
2018-08-18T10:04:02.136Z,98272.28
2018-08-18T10:06:30.936Z,98273.09
2018-08-18T10:08:59.545Z,98272.18
2018-08-18T10:11:28.263Z,98266.34
2018-08-18T10:13:57.141Z,98261.23
2018-08-18T10:16:25.763Z,98264.50
2018-08-18T10:18:54.757Z,98265.52
2018-08-18T10:21:23.447Z,98258.73
2018-08-18T10:23:52.685Z,98263.50
2018-08-18T10:26:21.334Z,98256.86
2018-08-18T10:28:58.048Z,98257.92
2018-08-18T10:31:26.693Z,98258.42
2018-08-18T10:33:55.660Z,98255.62
2018-08-18T10:36:24.544Z,98254.03
2018-08-18T10:38:53.240Z,98255.53
2018-08-18T10:41:22.486Z,98250.47
2018-08-18T10:43:51.967Z,98256.52
2018-08-18T10:46:20.606Z,98251.20
2018-08-18T10:48:49.967Z,98251.89
2018-08-18T10:51:30.259Z,98247.19
2018-08-18T10:54:01.358Z,98243.17
2018-08-18T10:56:30.523Z,98250.36
2018-08-18T10:59:19.219Z,98240.30
2018-08-18T11:02:00.350Z,98242.65
2018-08-18T11:04:31.274Z,98245.38
2018-08-18T11:07:00.029Z,98243.52
2018-08-18T11:09:30.090Z,98235.69
2018-08-18T11:11:59.160Z,98233.13
2018-08-18T11:14:28.400Z,98230.45
2018-08-18T11:16:57.167Z,98234.25
2018-08-18T11:19:25.843Z,98227.51
2018-08-18T11:22:05.841Z,98231.67
2018-08-18T11:24:34.589Z,98229.43
2018-08-18T11:27:09.621Z,98227.56
2018-08-18T11:29:38.273Z,98221.94
2018-08-18T11:32:06.985Z,98219.88
2018-08-18T11:34:35.581Z,98218.77
2018-08-18T11:37:06.229Z,98215.08
2018-08-18T11:39:34.858Z,98223.26
2018-08-18T11:42:03.518Z,98215.58
2018-08-18T11:44:32.635Z,98214.81
2018-08-18T11:47:01.397Z,98224.33
2018-08-18T11:49:30.013Z,98217.05
2018-08-18T11:51:58.677Z,98211.91
2018-08-18T11:54:27.645Z,98213.84
2018-08-18T11:56:56.373Z,98220.00
2018-08-18T11:59:25.062Z,98217.42
2018-08-18T12:01:55.480Z,98215.68
2018-08-18T12:04:24.597Z,98208.91
2018-08-18T12:06:58.003Z,98214.24
2018-08-18T12:09:27.183Z,98215.19
2018-08-18T12:11:56.181Z,98214.84
2018-08-18T12:14:24.877Z,98200.72
2018-08-18T12:16:53.583Z,98194.92
2018-08-18T12:19:23.456Z,98198.71
2018-08-18T12:21:52.260Z,98197.74
2018-08-18T12:24:22.958Z,98189.33
2018-08-18T12:27:02.593Z,98189.88
2018-08-18T12:29:32.401Z,98188.48
2018-08-18T12:32:01.039Z,98194.23
2018-08-18T12:34:31.905Z,98189.06
2018-08-18T12:37:00.743Z,98196.13
2018-08-18T12:39:29.534Z,98186.73
2018-08-18T12:41:59.301Z,98190.34
2018-08-18T12:44:35.962Z,98175.15
2018-08-18T12:47:04.831Z,98179.05
2018-08-18T12:49:33.678Z,98177.44
2018-08-18T12:52:02.382Z,98178.01
2018-08-18T12:54:31.643Z,98174.14
2018-08-18T12:57:01.199Z,98169.34
2018-08-18T12:59:29.884Z,98168.78
2018-08-18T13:01:58.639Z,98168.41
2018-08-18T13:04:27.805Z,98162.73
2018-08-18T13:06:56.664Z,98165.72
2018-08-18T13:09:27.367Z,98153.08
2018-08-18T13:11:57.637Z,98153.38
2018-08-18T13:14:29.593Z,98159.94
2018-08-18T13:16:58.411Z,98161.30
2018-08-18T13:19:29.490Z,98146.82
2018-08-18T13:21:58.861Z,98139.95
2018-08-18T13:24:29.807Z,98145.02
2018-08-18T13:27:00.178Z,98136.09
2018-08-18T13:29:31.813Z,98134.31
2018-08-18T13:32:01.182Z,98133.66
2018-08-18T13:34:29.819Z,98133.38
2018-08-18T13:36:58.536Z,98134.64
2018-08-18T13:39:27.292Z,98131.20
2018-08-18T13:41:56.646Z,98125.81
2018-08-18T13:44:30.604Z,98123.59
2018-08-18T13:46:59.349Z,98125.30
2018-08-18T13:49:28.449Z,98117.44
2018-08-18T13:51:57.674Z,98119.82
2018-08-18T13:54:26.469Z,98118.56
2018-08-18T13:56:55.210Z,98117.95
2018-08-18T13:59:43.927Z,98117.21
2018-08-18T14:02:12.801Z,98110.62
2018-08-18T14:04:42.467Z,98106.23
2018-08-18T14:07:11.293Z,98106.30
2018-08-18T14:09:42.999Z,98103.55
2018-08-18T14:12:14.016Z,98107.80
2018-08-18T14:14:43.097Z,98109.42
2018-08-18T14:17:12.335Z,98099.66
2018-08-18T14:19:41.083Z,98098.41
2018-08-18T14:22:10.570Z,98099.02
2018-08-18T14:24:40.454Z,98091.78
2018-08-18T14:27:15.075Z,98094.29
2018-08-18T14:29:43.732Z,98096.81
2018-08-18T14:32:19.537Z,98094.55
2018-08-18T14:34:57.512Z,98091.22
2018-08-18T14:37:26.649Z,98091.66
2018-08-18T14:39:55.905Z,98096.47
2018-08-18T14:42:24.593Z,98101.89
2018-08-18T14:44:55.545Z,98099.98
2018-08-18T14:47:24.511Z,98099.58
2018-08-18T14:50:07.193Z,98096.59
2018-08-18T14:52:35.941Z,98088.86
2018-08-18T14:55:04.756Z,98086.88
2018-08-18T14:58:33.089Z,98084.30
2018-08-18T15:01:06.869Z,98086.81
2018-08-18T15:03:36.994Z,98086.59
2018-08-18T15:06:05.827Z,98089.72
2018-08-18T15:08:34.575Z,98084.24
2018-08-18T15:11:03.287Z,98089.22
2018-08-18T15:13:32.224Z,98082.59
2018-08-18T15:16:01.277Z,98089.20
2018-08-18T15:18:30.024Z,98084.86
2018-08-18T15:20:58.779Z,98085.19
2018-08-18T15:23:27.551Z,98080.94
2018-08-18T15:25:56.170Z,98088.32
2018-08-18T15:28:24.844Z,98088.06
2018-08-18T15:30:54.652Z,98090.35
2018-08-18T15:33:24.765Z,98079.20
2018-08-18T15:35:53.805Z,98083.44
2018-08-18T15:38:40.572Z,98078.40
2018-08-18T15:41:09.517Z,98081.51
2018-08-18T15:43:38.386Z,98075.70
2018-08-18T15:46:07.060Z,98075.06
2018-08-18T15:48:38.858Z,98079.71
2018-08-18T15:51:08.095Z,98071.91
2018-08-18T15:54:17.588Z,98075.70
2018-08-18T15:56:46.118Z,98084.33
2018-08-18T15:59:14.808Z,98082.02
2018-08-18T16:01:43.677Z,98077.22
2018-08-18T16:04:12.452Z,98081.13
2018-08-18T16:06:41.504Z,98083.08
2018-08-18T16:09:11.857Z,98084.67
2018-08-18T16:11:40.528Z,98083.44
2018-08-18T16:14:09.216Z,98086.88
2018-08-18T16:16:53.089Z,98089.27
2018-08-18T16:19:21.961Z,98085.92
2018-08-18T16:21:50.886Z,98077.34
2018-08-18T16:24:35.001Z,98083.17
2018-08-18T16:27:06.598Z,98079.52
2018-08-18T16:29:35.701Z,98081.17
2018-08-18T16:32:27.529Z,98072.31
2018-08-18T16:35:02.583Z,98076.34
2018-08-18T16:37:32.312Z,98076.38
2018-08-18T16:40:01.037Z,98074.98
2018-08-18T16:42:32.400Z,98069.03
2018-08-18T16:45:01.944Z,98069.97
2018-08-18T16:47:31.716Z,98074.32
2018-08-18T16:50:00.948Z,98074.41
2018-08-18T16:52:30.405Z,98071.65
2018-08-18T16:54:59.117Z,98073.84
2018-08-18T16:57:28.102Z,98080.48
2018-08-18T16:59:56.783Z,98077.31
2018-08-18T17:02:32.916Z,98078.85
2018-08-18T17:05:01.585Z,98086.21
2018-08-18T17:07:30.290Z,98089.58
2018-08-18T17:09:59.535Z,98079.25
2018-08-18T17:12:31.429Z,98081.44
2018-08-18T17:15:00.198Z,98081.04
2018-08-18T17:17:28.915Z,98084.59
2018-08-18T17:19:58.423Z,98083.61
2018-08-18T17:22:27.726Z,98095.07
2018-08-18T17:24:56.347Z,98092.94
2018-08-18T17:27:28.062Z,98092.55
2018-08-18T17:29:57.534Z,98093.14
2018-08-18T17:32:28.432Z,98104.45
2018-08-18T17:34:57.765Z,98104.63
2018-08-18T17:37:27.261Z,98105.61
2018-08-18T17:39:56.327Z,98112.72
2018-08-18T17:42:28.406Z,98116.30
2018-08-18T17:44:57.485Z,98112.11
2018-08-18T17:47:28.511Z,98114.46
2018-08-18T17:50:01.803Z,98112.33
2018-08-18T17:52:30.787Z,98117.45
2018-08-18T17:55:12.015Z,98121.77
2018-08-18T17:57:41.073Z,98124.14
2018-08-18T18:00:22.597Z,98130.45
2018-08-18T18:02:56.773Z,98128.14
2018-08-18T18:05:26.941Z,98130.38
2018-08-18T18:07:59.636Z,98136.45
2018-08-18T18:10:32.779Z,98130.08
2018-08-18T18:13:02.629Z,98135.86
2018-08-18T18:15:36.296Z,98133.67
2018-08-18T18:18:05.324Z,98133.92
2018-08-18T18:20:35.227Z,98127.45
2018-08-18T18:23:05.703Z,98129.84
2018-08-18T18:25:34.823Z,98133.37
2018-08-18T18:28:04.482Z,98131.79
2018-08-18T18:30:33.671Z,98134.95
2018-08-18T18:33:02.868Z,98140.80
2018-08-18T18:35:32.674Z,98143.05
2018-08-18T18:38:04.895Z,98144.22
2018-08-18T18:40:34.953Z,98155.41
2018-08-18T18:43:04.155Z,98147.95
2018-08-18T18:45:33.032Z,98151.80
2018-08-18T18:48:02.479Z,98152.77
2018-08-18T18:50:31.826Z,98152.41
2018-08-18T18:53:01.514Z,98150.91
2018-08-18T18:55:31.087Z,98154.85
2018-08-18T18:58:11.240Z,98163.66
2018-08-18T19:00:44.368Z,98171.17
2018-08-18T19:08:31.941Z,98176.31
2018-08-18T19:11:03.629Z,98180.08
2018-08-18T19:13:33.767Z,98183.01
2018-08-18T19:16:02.600Z,98183.62
2018-08-18T19:18:32.263Z,98197.20
2018-08-18T19:21:01.578Z,98198.68
2018-08-18T19:23:33.791Z,98201.61
2018-08-18T19:26:03.295Z,98200.27
2018-08-18T19:28:32.057Z,98201.33
2018-08-18T19:31:00.873Z,98205.13
2018-08-18T19:33:29.618Z,98210.84
2018-08-18T19:35:58.378Z,98209.05
2018-08-18T19:38:28.395Z,98211.81
2018-08-18T19:40:57.338Z,98219.13
2018-08-18T19:43:27.371Z,98221.67
2018-08-18T19:45:56.803Z,98225.18
2018-08-18T19:48:26.886Z,98227.94
2018-08-18T19:51:00.907Z,98228.63
2018-08-18T19:53:34.308Z,98231.93
2018-08-18T19:56:04.232Z,98229.50
2018-08-18T19:58:33.136Z,98227.48
2018-08-18T20:01:02.672Z,98232.85
2018-08-18T20:03:31.826Z,98238.77
2018-08-18T20:06:03.416Z,98233.74
2018-08-18T20:08:32.218Z,98235.00
2018-08-18T20:11:02.206Z,98237.55
2018-08-18T20:13:32.455Z,98236.03
2018-08-18T20:16:03.613Z,98241.37
2018-08-18T20:18:38.368Z,98245.50
2018-08-18T20:21:07.120Z,98242.34
2018-08-18T20:23:36.090Z,98238.69
2018-08-18T20:26:05.719Z,98242.44
2018-08-18T20:28:35.337Z,98240.57
2018-08-18T20:31:04.898Z,98248.02
2018-08-18T20:33:34.500Z,98249.81
2018-08-18T20:36:03.335Z,98253.61
2018-08-18T20:38:37.951Z,98249.48
2018-08-18T20:41:06.737Z,98243.57
2018-08-18T20:43:36.264Z,98250.32
2018-08-18T20:46:05.239Z,98248.52
2018-08-18T20:48:34.819Z,98253.38
2018-08-18T20:51:03.689Z,98252.80
2018-08-18T20:53:32.745Z,98254.76
2018-08-18T20:56:02.900Z,98251.70
2018-08-18T20:58:34.288Z,98257.06
2018-08-18T21:01:03.684Z,98259.66
2018-08-18T21:03:44.691Z,98252.30
2018-08-18T21:06:14.984Z,98254.80
2018-08-18T21:08:43.874Z,98265.43
2018-08-18T21:11:12.849Z,98259.28
2018-08-18T21:13:42.247Z,98263.80
2018-08-18T21:16:11.716Z,98271.21
2018-08-18T21:18:41.674Z,98272.02
2018-08-18T21:21:24.598Z,98276.50
2018-08-18T21:23:54.325Z,98275.12
2018-08-18T21:26:23.208Z,98271.73
2018-08-18T21:28:55.297Z,98275.93
2018-08-18T21:31:29.163Z,98275.86
2018-08-18T21:33:59.750Z,98277.20
2018-08-18T21:36:30.142Z,98275.55
2018-08-18T21:39:03.243Z,98274.45
2018-08-18T21:41:32.487Z,98281.03
2018-08-18T21:44:01.106Z,98276.73
2018-08-18T21:46:30.126Z,98282.48
2018-08-18T21:49:00.916Z,98280.31
2018-08-18T21:51:29.849Z,98282.12
2018-08-18T21:53:58.990Z,98283.35
2018-08-18T21:56:35.397Z,98285.02
2018-08-18T21:59:06.728Z,98281.11
2018-08-18T22:01:35.538Z,98286.46
2018-08-18T22:04:05.100Z,98291.16
2018-08-18T22:06:33.830Z,98294.41
2018-08-18T22:09:20.263Z,98296.22
2018-08-18T22:11:49.147Z,98296.01
2018-08-18T22:14:18.706Z,98292.09
2018-08-18T22:16:53.016Z,98291.16
2018-08-18T22:19:22.177Z,98291.73
2018-08-18T22:21:50.992Z,98291.81
2018-08-18T22:24:19.721Z,98292.97
2018-08-18T22:26:48.493Z,98294.27
2018-08-18T22:29:17.379Z,98283.16
2018-08-18T22:31:46.111Z,98290.00
2018-08-18T22:34:14.781Z,98286.34
2018-08-18T22:36:43.436Z,98281.13
2018-08-18T22:39:12.171Z,98284.26
2018-08-18T22:41:43.980Z,98277.02
2018-08-18T22:44:13.226Z,98283.19
2018-08-18T22:46:42.455Z,98280.94
2018-08-18T22:49:11.092Z,98272.13
2018-08-18T22:51:39.926Z,98276.08
2018-08-18T22:54:08.565Z,98272.91
2018-08-18T22:56:38.389Z,98267.92
2018-08-18T22:59:08.460Z,98267.14
2018-08-18T23:01:38.544Z,98270.02
2018-08-18T23:04:29.569Z,98273.72
2018-08-18T23:06:59.245Z,98272.48
2018-08-18T23:09:28.847Z,98275.80
2018-08-18T23:11:59.994Z,98275.41
2018-08-18T23:14:35.294Z,98274.34
2018-08-18T23:17:04.141Z,98275.00
2018-08-18T23:19:33.841Z,98275.63
2018-08-18T23:22:03.024Z,98268.55
2018-08-18T23:24:36.146Z,98273.41
2018-08-18T23:27:05.122Z,98267.84
2018-08-18T23:29:33.830Z,98265.19
2018-08-18T23:32:14.114Z,98268.55
2018-08-18T23:34:42.703Z,98269.21
2018-08-18T23:37:16.880Z,98267.48
2018-08-18T23:39:45.517Z,98268.11
2018-08-18T23:42:17.926Z,98267.17
2018-08-18T23:44:47.004Z,98270.70
2018-08-18T23:47:16.594Z,98271.13
2018-08-18T23:49:45.546Z,98266.02
2018-08-18T23:52:14.177Z,98260.48
2018-08-18T23:54:43.357Z,98257.04
2018-08-18T23:57:12.246Z,98253.94
2018-08-18T23:59:40.951Z,98248.33
